Time;durP1;ratioP1;P1;durP2;ratioP2;P2;SDS_P1;SDS_P2;PMS_P1;PMS_P2;Temp;Humidity;BMP_temperature;BMP_pressure;BME280_temperature;BME280_humidity;BME280_pressure;Samples;Min_cycle;Max_cycle;Signal;HPM_P1;HPM_P2
2023/05/07 00:00:29;;;;;;;2.27;1.17;;;;;;;;;;5023447;28;20395;-81
2023/05/07 00:02:55;;;;;;;1.80;1.07;;;;;;;;;;5024031;28;20433;-82
2023/05/07 00:05:21;;;;;;;1.92;0.90;;;;;;;;;;5021274;28;20833;-81
2023/05/07 00:07:47;;;;;;;1.90;1.10;;;;;;;;;;5026077;28;20402;-82
2023/05/07 00:10:13;;;;;;;3.63;1.40;;;;;;;;;;5022281;28;20934;-84
2023/05/07 00:12:40;;;;;;;2.85;1.13;;;;;;;;;;5015806;28;21037;-81
2023/05/07 00:15:07;;;;;;;3.80;1.20;;;;;;;;;;5013042;28;20428;-81
2023/05/07 00:17:33;;;;;;;2.17;1.13;;;;;;;;;;5021671;28;20407;-81
2023/05/07 00:19:59;;;;;;;2.30;1.20;;;;;;;;;;5021620;28;20531;-80
2023/05/07 00:22:25;;;;;;;2.10;1.10;;;;;;;;;;5022318;28;20427;-81
2023/05/07 00:24:51;;;;;;;1.90;1.10;;;;;;;;;;5024488;28;20442;-83
2023/05/07 00:27:17;;;;;;;3.97;0.77;;;;;;;;;;5023071;28;20592;-81
2023/05/07 00:29:43;;;;;;;1.98;1.10;;;;;;;;;;5025692;28;20462;-80
2023/05/07 00:32:09;;;;;;;1.90;0.90;;;;;;;;;;5024201;28;20806;-79
2023/05/07 00:34:35;;;;;;;1.98;0.70;;;;;;;;;;5017906;28;20488;-81
2023/05/07 00:37:01;;;;;;;2.58;1.08;;;;;;;;;;5022988;28;20509;-80
2023/05/07 00:39:28;;;;;;;2.40;1.10;;;;;;;;;;5012956;28;20422;-81
2023/05/07 00:41:54;;;;;;;2.22;0.82;;;;;;;;;;5019197;28;20892;-82
2023/05/07 00:44:20;;;;;;;1.75;0.90;;;;;;;;;;5023513;28;20409;-80
2023/05/07 00:46:49;;;;;;;2.25;0.90;;;;;;;;;;5022824;28;20454;-81
2023/05/07 00:49:15;;;;;;;1.77;0.90;;;;;;;;;;5022928;28;20456;-81
2023/05/07 00:51:41;;;;;;;2.80;0.93;;;;;;;;;;5017624;28;20407;-82
2023/05/07 00:54:08;;;;;;;1.35;0.75;;;10.60;99.90;;;;;;5024558;28;20402;-81
2023/05/07 00:56:34;;;;;;;2.55;0.73;;;;;;;;;;5026504;28;20403;-81
2023/05/07 00:59:01;;;;;;;2.03;0.90;;;;;;;;;;5023888;28;20411;-82
2023/05/07 01:01:27;;;;;;;1.55;0.82;;;;;;;;;;5017837;28;20408;-80
2023/05/07 01:03:53;;;;;;;2.53;1.10;;;;;;;;;;5021208;28;20441;-79
2023/05/07 01:06:19;;;;;;;2.88;0.85;;;;;;;;;;5022698;28;20974;-81
2023/05/07 01:08:45;;;;;;;2.38;0.88;;;;;;;;;;5017687;28;20431;-82
2023/05/07 01:11:11;;;;;;;2.55;0.70;;;;;;;;;;5023062;28;20459;-81
2023/05/07 01:13:39;;;;;;;1.30;0.80;;;;;;;;;;5028199;28;20409;-83
2023/05/07 01:16:05;;;;;;;2.30;1.00;;;;;;;;;;5019684;28;20468;-80
2023/05/07 01:18:31;;;;;;;5.20;0.98;;;;;;;;;;5014806;28;20418;-81
2023/05/07 01:20:59;;;;;;;1.30;0.82;;;;;;;;;;5035707;28;20491;-80
2023/05/07 01:23:25;;;;;;;1.88;0.80;;;;;;;;;;5035608;28;20425;-82
2023/05/07 01:25:52;;;;;;;1.83;0.80;;;11.30;99.90;;;;;;5028257;28;20414;-80
2023/05/07 01:28:18;;;;;;;3.70;1.00;;;;;;;;;;5026358;28;20474;-80
2023/05/07 01:30:49;;;;;;;3.05;1.00;;;10.10;99.90;;;;;;5027047;28;20409;-80
2023/05/07 01:33:17;;;;;;;1.73;1.00;;;;;;;;;;5026664;28;20959;-79
2023/05/07 01:35:45;;;;;;;2.38;0.90;;;;;;;;;;5025755;28;20407;-80
2023/05/07 01:38:12;;;;;;;1.52;0.90;;;;;;;;;;5022824;28;21827;-80
2023/05/07 01:40:38;;;;;;;3.38;1.20;;;;;;;;;;5023369;28;20414;-80
2023/05/07 01:43:05;;;;;;;1.75;0.90;;;;;;;;;;5020531;28;20445;-80
2023/05/07 01:45:32;;;;;;;1.75;1.00;;;;;;;;;;5022633;28;20414;-80
2023/05/07 01:47:58;;;;;;;2.58;1.15;;;;;;;;;;5029882;28;20496;-83
2023/05/07 01:50:26;;;;;;;1.60;0.80;;;;;;;;;;5030680;28;20395;-81
2023/05/07 01:52:52;;;;;;;2.63;0.98;;;;;;;;;;5014374;28;20931;-81
2023/05/07 01:55:19;;;;;;;3.40;1.17;;;;;;;;;;5041944;28;20422;-81
2023/05/07 01:57:45;;;;;;;1.23;0.80;;;;;;;;;;5030293;28;20458;-81
2023/05/07 02:00:11;;;;;;;6.00;0.97;;;;;;;;;;5028702;28;20894;-81
2023/05/07 02:02:38;;;;;;;3.17;1.23;;;;;;;;;;5029856;28;20422;-80
2023/05/07 02:05:04;;;;;;;3.35;0.98;;;;;;;;;;5025186;28;21295;-81
2023/05/07 02:07:30;;;;;;;1.25;0.75;;;;;;;;;;5023879;28;20435;-83
2023/05/07 02:09:56;;;;;;;3.38;1.00;;;;;;;;;;5022918;28;20406;-80
2023/05/07 02:12:23;;;;;;;2.30;0.80;;;10.20;99.90;;;;;;5021084;28;20400;-80
2023/05/07 02:14:49;;;;;;;1.60;0.95;;;;;;;;;;5024059;28;20415;-82
2023/05/07 02:17:15;;;;;;;2.03;1.20;;;;;;;;;;5036089;28;20457;-81
2023/05/07 02:19:41;;;;;;;2.95;1.10;;;;;;;;;;5028581;28;20429;-80
2023/05/07 02:22:07;;;;;;;3.57;1.67;;;;;;;;;;5028696;28;20470;-81
2023/05/07 02:24:33;;;;;;;2.33;1.30;;;;;;;;;;5028648;28;20415;-80
2023/05/07 02:26:59;;;;;;;1.57;0.80;;;;;;;;;;5039352;28;20401;-80
2023/05/07 02:29:25;;;;;;;2.05;0.90;;;;;;;;;;5017578;28;20468;-81
2023/05/07 02:31:52;;;;;;;6.37;1.10;;;;;;;;;;5025891;28;20498;-81
2023/05/07 02:34:19;;;;;;;3.30;0.90;;;;;;;;;;5023633;28;20470;-79
2023/05/07 02:36:45;;;;;;;1.20;0.60;;;;;;;;;;5022437;28;20399;-81
2023/05/07 02:39:11;;;;;;;1.92;1.00;;;;;;;;;;5026883;28;20401;-80
2023/05/07 02:41:38;;;;;;;1.73;0.98;;;;;;;;;;5026655;28;20391;-81
2023/05/07 02:44:04;;;;;;;1.80;0.80;;;;;;;;;;5019543;28;20763;-82
2023/05/07 02:46:30;;;;;;;2.15;0.88;;;;;;;;;;5030347;28;20746;-81
2023/05/07 02:48:56;;;;;;;1.73;0.73;;;;;;;;;;5030024;28;20407;-79
2023/05/07 02:51:22;;;;;;;2.67;1.00;;;;;;;;;;5030114;28;20406;-80
2023/05/07 02:53:48;;;;;;;2.13;0.93;;;;;;;;;;5027956;28;20960;-80
2023/05/07 02:56:14;;;;;;;2.00;1.17;;;;;;;;;;5020410;28;20402;-81
2023/05/07 02:58:41;;;;;;;2.15;1.02;;;;;;;;;;5036918;28;20455;-81
2023/05/07 03:01:07;;;;;;;2.03;0.98;;;;;;;;;;5024936;28;20410;-81
2023/05/07 03:03:33;;;;;;;1.55;0.98;;;;;;;;;;5022159;28;20414;-80
2023/05/07 03:05:59;;;;;;;1.60;1.02;;;;;;;;;;5019001;28;20497;-80
2023/05/07 03:08:25;;;;;;;2.50;1.00;;;;;;;;;;5020684;28;20449;-79
2023/05/07 03:10:51;;;;;;;2.42;0.90;;;;;;;;;;5021716;28;20886;-81
2023/05/07 03:13:17;;;;;;;2.33;1.00;;;;;;;;;;5024590;28;20410;-81
2023/05/07 03:15:43;;;;;;;3.60;1.13;;;;;;;;;;5023261;28;20813;-81
2023/05/07 03:18:10;;;;;;;1.67;0.90;;;;;;;;;;5026546;28;20411;-79
2023/05/07 03:20:36;;;;;;;1.77;0.70;;;;;;;;;;5025808;28;21429;-80
2023/05/07 03:23:02;;;;;;;2.10;1.20;;;;;;;;;;5022118;28;20410;-79
2023/05/07 03:25:29;;;;;;;2.97;1.58;;;;;;;;;;5029772;28;20416;-81
2023/05/07 03:27:55;;;;;;;2.08;1.00;;;;;;;;;;5024929;28;20403;-81
2023/05/07 03:30:21;;;;;;;1.48;0.85;;;;;;;;;;5026761;28;20407;-79
2023/05/07 03:32:47;;;;;;;6.00;1.00;;;;;;;;;;5026081;28;20760;-80
2023/05/07 03:35:13;;;;;;;2.40;1.00;;;;;;;;;;5023070;28;20416;-82
2023/05/07 03:37:40;;;;;;;1.60;0.88;;;;;;;;;;5022327;28;20457;-80
2023/05/07 03:40:07;;;;;;;2.05;1.02;;;;;;;;;;5026851;28;20546;-81
2023/05/07 03:42:33;;;;;;;1.38;0.80;;;;;;;;;;5026668;28;20440;-80
2023/05/07 03:44:59;;;;;;;2.28;0.80;;;;;;;;;;5023655;28;20488;-81
2023/05/07 03:47:25;;;;;;;1.98;1.00;;;;;;;;;;5023435;28;20828;-81
2023/05/07 03:49:52;;;;;;;1.40;1.00;;;;;;;;;;5022303;28;20407;-80
2023/05/07 03:52:23;;;;;;;2.08;1.00;;;;;;;;;;5023474;28;20410;-80
2023/05/07 03:54:49;;;;;;;2.25;1.00;;;;;;;;;;5029642;28;20422;-81
2023/05/07 03:57:15;;;;;;;1.60;0.95;;;;;;;;;;5026324;28;20414;-83
2023/05/07 03:59:41;;;;;;;3.15;1.02;;;;;;;;;;5014118;28;20798;-81
2023/05/07 04:02:07;;;;;;;2.03;1.00;;;;;;;;;;5018449;28;20401;-80
2023/05/07 04:04:33;;;;;;;2.30;0.75;;;;;;;;;;5027084;28;20845;-82
2023/05/07 04:07:00;;;;;;;2.50;1.05;;;;;;;;;;5022858;28;20414;-82
2023/05/07 04:09:26;;;;;;;1.92;0.90;;;;;;;;;;5030791;28;20437;-82
2023/05/07 04:11:52;;;;;;;1.80;0.80;;;;;;;;;;5020156;28;20497;-81
2023/05/07 04:14:18;;;;;;;1.67;0.87;;;;;;;;;;5025306;28;20397;-82
2023/05/07 04:16:44;;;;;;;1.80;0.80;;;;;;;;;;5028139;28;20429;-81
2023/05/07 04:19:10;;;;;;;1.42;0.70;;;;;;;;;;5024305;28;20784;-82
2023/05/07 04:21:36;;;;;;;3.60;1.30;;;;;;;;;;5025751;28;20498;-82
2023/05/07 04:24:03;;;;;;;2.10;0.90;;;;;;;;;;5027874;28;20411;-80
2023/05/07 04:26:30;;;;;;;2.13;1.02;;;;;;;;;;5038311;28;20512;-85
2023/05/07 04:28:57;;;;;;;1.95;0.88;;;;;;;;;;5034374;28;20431;-83
2023/05/07 04:31:25;;;;;;;1.67;0.88;;;;;;;;;;5041085;28;20426;-84
2023/05/07 04:33:51;;;;;;;1.98;0.90;;;;;;;;;;5036309;28;21738;-86
2023/05/07 04:36:17;;;;;;;1.70;0.82;;;;;;;;;;5040394;28;20661;-81
2023/05/07 04:38:43;;;;;;;2.38;0.65;;;;;;;;;;5035248;28;20242;-80
2023/05/07 04:41:09;;;;;;;2.42;1.23;;;;;;;;;;5021289;28;20360;-81
2023/05/07 04:43:35;;;;;;;1.98;0.95;;;;;;;;;;5014497;28;20030;-81
2023/05/07 04:46:01;;;;;;;0.93;0.63;;;;;;;;;;5029176;28;20490;-80
2023/05/07 04:48:28;;;;;;;2.30;1.23;;;;;;;;;;5024520;28;20133;-81
2023/05/07 04:50:54;;;;;;;1.60;0.82;;;;;;;;;;5029768;28;21462;-82
2023/05/07 04:53:21;;;;;;;2.10;1.40;;;;;;;;;;5032124;28;20035;-83
2023/05/07 04:55:47;;;;;;;3.00;1.38;;;11.70;99.90;;;;;;5032320;28;20037;-80
2023/05/07 04:58:13;;;;;;;1.55;0.80;;;;;;;;;;5026846;28;20488;-81
2023/05/07 05:00:39;;;;;;;2.80;1.50;;;;;;;;;;5029181;28;20025;-82
2023/05/07 05:03:05;;;;;;;3.78;1.50;;;;;;;;;;5033898;28;20116;-82
2023/05/07 05:05:32;;;;;;;1.50;1.10;;;;;;;;;;5031816;28;20113;-80
2023/05/07 05:07:58;;;;;;;2.08;1.10;;;11.80;99.90;;;;;;5032231;28;20021;-82
2023/05/07 05:10:24;;;;;;;1.88;0.95;;;;;;;;;;5031741;28;20048;-83
2023/05/07 05:12:50;;;;;;;3.25;1.50;;;;;;;;;;5023104;28;20060;-82
2023/05/07 05:15:16;;;;;;;2.22;1.27;;;12.20;99.90;;;;;;5027834;28;20037;-81
2023/05/07 05:17:42;;;;;;;3.08;1.50;;;;;;;;;;5027620;28;20032;-82
2023/05/07 05:20:09;;;;;;;2.80;1.35;;;;;;;;;;5031675;28;20058;-82
2023/05/07 05:22:36;;;;;;;3.10;2.03;;;;;;;;;;5032251;28;20052;-82
2023/05/07 05:25:02;;;;;;;2.60;1.45;;;;;;;;;;5027352;28;20758;-83
2023/05/07 05:27:29;;;;;;;4.63;2.17;;;;;;;;;;5028566;28;20499;-83
2023/05/07 05:29:55;;;;;;;3.63;1.63;;;13.90;99.90;;;;;;5030201;28;20025;-81
2023/05/07 05:32:21;;;;;;;2.60;1.75;;;;;;;;;;5035038;28;20392;-82
2023/05/07 05:34:46;;;;;;;4.13;2.03;;;;;;;;;;5022444;28;20137;-82
2023/05/07 05:37:12;;;;;;;3.67;1.15;;;;;;;;;;5029835;28;20033;-82
2023/05/07 05:39:38;;;;;;;2.05;1.23;;;;;;;;;;5019210;28;20033;-83
2023/05/07 05:42:04;;;;;;;16.38;1.35;;;;;;;;;;5032665;28;20039;-82
2023/05/07 05:44:30;;;;;;;3.67;1.35;;;;;;;;;;5034485;28;21271;-83
2023/05/07 05:46:59;;;;;;;6.10;1.30;;;;;;;;;;5038172;28;20036;-82
2023/05/07 05:49:25;;;;;;;2.72;1.58;;;;;;;;;;5033375;28;20421;-82
2023/05/07 05:51:51;;;;;;;2.00;1.50;;;;;;;;;;5026225;28;20393;-82
2023/05/07 05:54:16;;;;;;;3.15;1.48;;;;;;;;;;5031719;28;20030;-81
2023/05/07 05:56:43;;;;;;;4.63;2.17;;;;;;;;;;5037393;28;20446;-82
2023/05/07 05:59:08;;;;;;;2.55;1.30;;;;;;;;;;5029678;28;20032;-80
2023/05/07 06:01:34;;;;;;;2.10;1.35;;;;;;;;;;5034876;28;20532;-83
2023/05/07 06:04:00;;;;;;;1.35;1.00;;;;;;;;;;5035718;28;20033;-82
2023/05/07 06:06:27;;;;;;;2.85;1.33;;;;;;;;;;5029408;28;20040;-83
2023/05/07 06:08:52;;;;;;;3.42;0.80;;;14.70;99.90;;;;;;5031327;28;20520;-80
2023/05/07 06:11:18;;;;;;;2.88;1.63;;;;;;;;;;5027522;28;20041;-81
2023/05/07 06:13:44;;;;;;;2.03;1.13;;;;;;;;;;5034646;28;20487;-80
2023/05/07 06:16:10;;;;;;;3.72;1.17;;;;;;;;;;5015099;28;20072;-81
2023/05/07 06:18:36;;;;;;;1.75;1.00;;;;;;;;;;5019096;28;20033;-79
2023/05/07 06:21:02;;;;;;;3.65;1.00;;;;;;;;;;5030255;28;20073;-80
2023/05/07 06:23:28;;;;;;;2.05;1.15;;;;;;;;;;5038915;28;20473;-81
2023/05/07 06:25:54;;;;;;;1.80;0.95;;;;;;;;;;5011876;28;20047;-87
2023/05/07 06:28:20;;;;;;;2.53;1.00;;;;;;;;;;5014280;28;22706;-79
2023/05/07 06:30:47;;;;;;;3.15;0.93;;;;;;;;;;5027080;28;20108;-82
2023/05/07 06:33:13;;;;;;;1.63;0.88;;;;;;;;;;5029701;28;20022;-83
2023/05/07 06:35:38;;;;;;;1.50;0.82;;;;;;;;;;5021800;28;20033;-84
2023/05/07 06:38:05;;;;;;;11.90;2.83;;;;;;;;;;5022828;28;20037;-84
2023/05/07 06:40:31;;;;;;;2.00;1.00;;;;;;;;;;5023574;28;20177;-82
2023/05/07 06:42:56;;;;;;;1.38;1.10;;;;;;;;;;5031111;28;20120;-81
2023/05/07 06:45:23;;;;;;;3.13;1.50;;;;;;;;;;5021113;28;20026;-81
2023/05/07 06:47:49;;;;;;;1.92;1.02;;;16.30;99.90;;;;;;5025339;28;20409;-80
2023/05/07 06:50:16;;;;;;;2.03;1.05;;;;;;;;;;5023862;28;20036;-82
2023/05/07 06:52:42;;;;;;;2.35;1.30;;;;;;;;;;5009473;28;22421;-84
2023/05/07 06:55:08;;;;;;;1.67;0.82;;;16.80;99.90;;;;;;5010546;28;20041;-81
2023/05/07 06:57:34;;;;;;;0.95;0.65;;;;;;;;;;5007026;28;20045;-85
2023/05/07 07:00:00;;;;;;;1.65;0.90;;;;;;;;;;5013755;28;20037;-85
2023/05/07 07:02:26;;;;;;;2.33;1.40;;;;;;;;;;5014709;28;20080;-82
2023/05/07 07:04:52;;;;;;;2.03;0.90;;;;;;;;;;5016369;28;20581;-82
2023/05/07 07:07:18;;;;;;;3.58;1.55;;;;;;;;;;5029754;28;20555;-83
2023/05/07 07:09:44;;;;;;;4.97;1.23;;;;;;;;;;5018416;28;20061;-85
2023/05/07 07:12:10;;;;;;;1.75;0.90;;;;;;;;;;5011023;28;20057;-85
2023/05/07 07:14:36;;;;;;;2.33;0.95;;;;;;;;;;5007491;28;20017;-81
2023/05/07 07:17:02;;;;;;;2.97;0.93;;;;;;;;;;5016283;28;20426;-81
2023/05/07 07:19:28;;;;;;;1.83;1.35;;;;;;;;;;5021619;28;20040;-82
2023/05/07 07:21:54;;;;;;;3.38;1.95;;;;;;;;;;5018390;28;20156;-80
2023/05/07 07:24:21;;;;;;;2.55;1.48;;;;;;;;;;5013929;28;20079;-81
2023/05/07 07:26:47;;;;;;;1.85;0.70;;;;;;;;;;5028168;28;20025;-81
2023/05/07 07:29:13;;;;;;;1.85;0.80;;;;;;;;;;5013323;28;20048;-84
2023/05/07 07:31:39;;;;;;;1.50;1.00;;;;;;;;;;5013625;28;20746;-83
2023/05/07 07:34:05;;;;;;;1.48;0.98;;;;;;;;;;5014868;28;20037;-82
2023/05/07 07:36:31;;;;;;;1.50;0.80;;;;;;;;;;5008082;28;20033;-80
2023/05/07 07:38:57;;;;;;;1.77;0.80;;;;;;;;;;5014897;28;20029;-79
2023/05/07 07:41:22;;;;;;;1.27;0.70;;;19.80;99.90;;;;;;5013567;28;20402;-80
2023/05/07 07:43:48;;;;;;;2.33;0.82;;;;;;;;;;5010090;28;20022;-84
2023/05/07 07:46:15;;;;;;;1.30;0.90;;;;;;;;;;5019501;28;20631;-83
2023/05/07 07:48:40;;;;;;;2.08;1.40;;;;;;;;;;5016609;28;20029;-82
2023/05/07 07:51:06;;;;;;;2.25;0.85;;;;;;;;;;5016464;28;20413;-83
2023/05/07 07:53:32;;;;;;;2.50;1.50;;;;;;;;;;5022442;28;20074;-81
2023/05/07 07:55:58;;;;;;;3.00;1.95;;;;;;;;;;5020903;28;20175;-85
2023/05/07 07:58:24;;;;;;;2.85;1.50;;;;;;;;;;5022249;28;20573;-83
2023/05/07 08:00:51;;;;;;;2.83;1.75;;;;;;;;;;5017736;28;20127;-84
2023/05/07 08:03:16;;;;;;;2.42;1.50;;;21.60;99.90;;;;;;5027259;28;20034;-82
2023/05/07 08:05:42;;;;;;;5.85;2.38;;;;;;;;;;5027963;28;20040;-83
2023/05/07 08:08:09;;;;;;;2.65;1.40;;;;;;;;;;5026482;28;20018;-85
2023/05/07 08:10:38;;;;;;;4.28;1.23;;;;;;;;;;5023896;28;20032;-81
2023/05/07 08:13:05;;;;;;;2.55;1.20;;;;;;;;;;5023658;28;20036;-82
2023/05/07 08:15:31;;;;;;;2.08;1.20;;;;;;;;;;5024029;28;20022;-81
2023/05/07 08:17:59;;;;;;;2.88;1.90;;;;;;;;;;5032965;28;20031;-80
2023/05/07 08:20:26;;;;;;;2.85;1.23;;;;;;;;;;5024741;28;20021;-81
2023/05/07 08:22:51;;;;;;;5.85;1.60;;;21.80;99.90;;;;;;5028723;28;20041;-82
2023/05/07 08:25:17;;;;;;;2.65;1.33;;;;;;;;;;5027992;28;20021;-84
2023/05/07 08:27:44;;;;;;;3.35;1.17;;;;;;;;;;5027446;28;20494;-83
2023/05/07 08:30:11;;;;;;;1.92;1.15;;;23.30;98.50;;;;;;5033306;28;20022;-84
2023/05/07 08:32:36;;;;;;;1.75;1.15;;;23.30;99.90;;;;;;5031976;28;20060;-83
2023/05/07 08:35:02;;;;;;;2.10;1.10;;;;;;;;;;5033498;28;20041;-83
2023/05/07 08:37:28;;;;;;;1.90;1.02;;;;;;;;;;5033418;28;20088;-84
2023/05/07 08:39:54;;;;;;;1.75;1.10;;;;;;;;;;5025488;28;20091;-82
2023/05/07 08:42:23;;;;;;;4.55;0.60;;;28.50;84.30;;;;;;5029193;28;20029;-81
2023/05/07 08:44:52;;;;;;;3.00;1.10;;;30.20;77.40;;;;;;5033066;28;20477;-82
2023/05/07 08:47:19;;;;;;;3.45;1.02;;;32.30;67.30;;;;;;5038054;28;20495;-82
2023/05/07 08:49:45;;;;;;;2.42;0.77;;;;;;;;;;5035210;28;20090;-84
2023/05/07 08:52:12;;;;;;;3.28;0.75;;;32.70;74.00;;;;;;5020958;28;20045;-82
2023/05/07 08:54:38;;;;;;;2.60;0.93;;;;;;;;;;5027792;28;20049;-82
2023/05/07 08:57:04;;;;;;;2.47;0.60;;;;;;;;;;5033124;28;20029;-81
2023/05/07 08:59:30;;;;;;;4.38;1.27;;;;;;;;;;5026558;28;20053;-86
2023/05/07 09:01:56;;;;;;;1.45;0.80;;;;;;;;;;5026989;28;20036;-84
2023/05/07 09:04:22;;;;;;;1.75;0.70;;;;;;;;;;5035354;28;20026;-84
2023/05/07 09:06:50;;;;;;;3.95;1.65;;;;;;;;;;5029675;28;20087;-82
2023/05/07 09:09:18;;;;;;;1.75;1.13;;;35.40;49.70;;;;;;5030658;28;20017;-84
2023/05/07 09:11:44;;;;;;;1.08;0.70;;;;;;;;;;5029483;28;20037;-81
2023/05/07 09:14:10;;;;;;;3.10;0.77;;;;;;;;;;5031206;28;20029;-84
2023/05/07 09:16:36;;;;;;;1.50;0.88;;;;;;;;;;5028855;28;20034;-83
2023/05/07 09:19:02;;;;;;;1.75;0.80;;;;;;;;;;5025288;28;20105;-83
2023/05/07 09:21:28;;;;;;;1.40;0.60;;;;;;;;;;5025632;28;20036;-84
2023/05/07 09:23:55;;;;;;;2.90;0.70;;;27.90;64.60;;;;;;5034130;28;20105;-85
2023/05/07 09:26:21;;;;;;;;;;;27.00;65.30;;;;;;5031981;28;20059;-80
2023/05/07 09:28:47;;;;;;;1.27;0.68;;;;;;;;;;5028650;28;19923;-82
2023/05/07 09:31:13;;;;;;;1.70;0.80;;;;;;;;;;5022613;28;20093;-83
2023/05/07 09:33:39;;;;;;;2.70;0.80;;;;;;;;;;5026761;28;20105;-84
2023/05/07 09:36:06;;;;;;;2.20;0.82;;;25.80;73.50;;;;;;5027433;28;20037;-83
2023/05/07 09:38:33;;;;;;;1.92;0.65;;;26.00;71.30;;;;;;5020971;28;20084;-84
2023/05/07 09:41:10;;;;;;;2.45;0.98;;;26.00;70.10;;;;;;5035585;28;20044;-83
2023/05/07 09:43:36;;;;;;;2.67;1.40;;;;;;;;;;5028575;28;20076;-88
2023/05/07 09:46:12;;;;;;;3.42;2.03;;;26.50;65.90;;;;;;5028980;28;20065;-83
2023/05/07 09:48:40;;;;;;;;;;;26.30;66.40;;;;;;5027673;28;20116;-82
2023/05/07 09:51:11;;;;;;;;;;;26.30;67.60;;;;;;5041362;28;19956;-82
2023/05/07 09:53:39;;;;;;;;;;;26.40;68.70;;;;;;5036261;28;19916;-81
2023/05/07 09:56:05;;;;;;;;;;;26.40;70.30;;;;;;5049533;28;19917;-84
2023/05/07 09:58:32;;;;;;;2.80;1.83;;;;;;;;;;5031459;28;21313;-82
2023/05/07 10:00:58;;;;;;;1.77;1.00;;;;;;;;;;5032557;28;20026;-84
2023/05/07 10:03:27;;;;;;;3.58;0.77;;;25.80;69.20;;;;;;5029585;28;20079;-85
2023/05/07 10:05:54;;;;;;;2.50;0.68;;;;;;;;;;5033490;28;20020;-85
2023/05/07 10:08:20;;;;;;;1.10;0.50;;;;;;;;;;5027465;28;20135;-82
2023/05/07 10:10:46;;;;;;;2.83;0.77;;;;;;;;;;5034950;28;20203;-84
2023/05/07 10:13:13;;;;;;;3.13;0.70;;;;;;;;;;5041147;28;20083;-85
2023/05/07 10:15:39;;;;;;;2.55;0.80;;;24.30;86.80;;;;;;5034610;28;21447;-82
2023/05/07 10:18:06;;;;;;;1.85;0.98;;;;;;;;;;5024934;28;20034;-82
2023/05/07 10:20:36;;;;;;;1.98;0.85;;;23.80;69.40;;;;;;5014679;28;20083;-83
2023/05/07 10:23:04;;;;;;;1.13;0.68;;;24.20;90.10;;;;;;5012468;28;20037;-81
2023/05/07 10:25:31;;;;;;;1.80;0.88;;;;;;;;;;5018172;28;20040;-82
2023/05/07 10:28:02;;;;;;;3.72;0.73;;;24.30;89.20;;;;;;5003093;28;20043;-82
2023/05/07 10:30:38;;;;;;;4.40;0.40;;;24.40;71.60;;;;;;5042311;28;20032;-83
2023/05/07 10:33:05;;;;;;;4.47;1.15;;;;;;;;;;5014237;28;20087;-85
2023/05/07 10:35:36;;;;;;;2.58;1.35;;;;;;;;;;5004923;28;20038;-82
2023/05/07 10:38:02;;;;;;;1.55;0.65;;;;;;;;;;5005211;28;20045;-84
2023/05/07 10:40:28;;;;;;;1.92;1.00;;;;;;;;;;5007573;28;20068;-84
2023/05/07 10:43:00;;;;;;;3.10;0.85;;;24.60;70.30;;;;;;5009212;28;20100;-84
2023/05/07 10:45:26;;;;;;;1.90;0.93;;;;;;;;;;5008838;28;20505;-81
2023/05/07 10:48:12;;;;;;;1.63;0.90;;;24.80;70.60;;;;;;5020152;28;20029;-79
2023/05/07 10:50:39;;;;;;;0.85;0.50;;;25.60;73.60;;;;;;5014559;28;20340;-80
2023/05/07 10:53:17;;;;;;;0.90;0.55;;;25.50;66.70;;;;;;5027792;28;20156;-79
2023/05/07 10:55:43;;;;;;;2.00;0.85;;;;;;;;;;5027077;28;20025;-78
2023/05/07 10:58:26;;;;;;;6.60;1.15;;;;;;;;;;5025386;28;20710;-78
2023/05/07 11:00:56;;;;;;;2.13;0.57;;;;;;;;;;5017343;28;20030;-79
2023/05/07 11:03:22;;;;;;;2.35;1.38;;;;;;;;;;5013683;28;20053;-80
2023/05/07 11:06:08;;;;;;;1.15;0.70;;;;;;;;;;5014674;28;21257;-81
2023/05/07 11:08:53;;;;;;;1.98;0.82;;;;;;;;;;5030259;28;20300;-80
2023/05/07 11:11:19;;;;;;;1.13;0.60;;;;;;;;;;5011060;28;20034;-79
2023/05/07 11:13:46;;;;;;;4.32;1.38;;;;;;;;;;5022568;28;20029;-80
2023/05/07 11:16:19;;;;;;;3.13;1.33;;;;;;;;;;5025694;28;20053;-81
2023/05/07 11:18:49;;;;;;;3.05;1.48;;;;;;;;;;5023835;28;20055;-81
2023/05/07 11:21:34;;;;;;;3.08;0.90;;;;;;;;;;5021111;28;20456;-81
2023/05/07 11:24:02;;;;;;;1.52;0.60;;;;;;;;;;5024007;28;20040;-80
2023/05/07 11:26:30;;;;;;;1.45;0.90;;;23.40;72.50;;;;;;5016721;28;20053;-81
2023/05/07 11:28:56;;;;;;;1.40;0.65;;;;;;;;;;5021249;28;20124;-80
2023/05/07 11:31:25;;;;;;;1.80;0.70;;;;;;;;;;5020975;28;20067;-81
2023/05/07 11:33:52;;;;;;;3.05;1.13;;;;;;;;;;5017022;28;20079;-81
2023/05/07 11:36:19;;;;;;;0.90;0.50;;;;;;;;;;5013025;28;20065;-80
2023/05/07 11:38:45;;;;;;;0.73;0.50;;;;;;;;;;5013309;28;20120;-81
2023/05/07 11:41:11;;;;;;;4.20;0.68;;;;;;;;;;5017323;28;20175;-82
2023/05/07 11:43:39;;;;;;;0.55;0.40;;;;;;;;;;5016580;28;20083;-81
2023/05/07 11:46:09;;;;;;;5.15;1.00;;;25.80;69.00;;;;;;5017307;28;20389;-81
2023/05/07 11:48:36;;;;;;;1.70;0.80;;;;;;;;;;5038653;28;20028;-80
2023/05/07 11:51:03;;;;;;;0.90;0.60;;;;;;;;;;5014259;28;20033;-80
2023/05/07 11:53:40;;;;;;;1.95;0.70;;;;;;;;;;5010190;28;20034;-80
2023/05/07 11:56:11;;;;;;;2.72;1.00;;;25.90;67.70;;;;;;5014089;28;20033;-81
2023/05/07 11:58:38;;;;;;;1.08;0.57;;;25.60;64.40;;;;;;5006374;28;21292;-82
2023/05/07 12:01:05;;;;;;;0.98;0.57;;;;;;;;;;5020019;28;20040;-81
2023/05/07 12:03:32;;;;;;;3.08;0.73;;;;;;;;;;5018692;28;20040;-79
2023/05/07 12:05:59;;;;;;;1.52;0.90;;;25.00;69.90;;;;;;5020765;28;20025;-80
2023/05/07 12:08:25;;;;;;;2.03;0.75;;;;;;;;;;5023150;28;20026;-80
2023/05/07 12:10:52;;;;;;;2.78;0.45;;;;;;;;;;5012720;28;20060;-80
2023/05/07 12:13:23;;;;;;;3.83;0.75;;;25.20;72.90;;;;;;5014555;28;20030;-81
2023/05/07 12:15:52;;;;;;;2.25;0.80;;;;;;;;;;5018860;28;20029;-80
2023/05/07 12:18:19;;;;;;;2.58;0.75;;;;;;;;;;5018088;28;20025;-80
2023/05/07 12:20:45;;;;;;;1.45;0.73;;;;;;;;;;5008869;28;20123;-80
2023/05/07 12:23:11;;;;;;;2.28;0.70;;;;;;;;;;5020694;28;20029;-81
2023/05/07 12:25:38;;;;;;;4.18;0.77;;;24.10;73.70;;;;;;5042492;28;20083;-81
2023/05/07 12:28:07;;;;;;;1.75;0.73;;;;;;;;;;5017392;28;20044;-81
2023/05/07 12:30:39;;;;;;;2.10;0.70;;;;;;;;;;5023541;28;20520;-79
2023/05/07 12:33:05;;;;;;;1.23;0.60;;;;;;;;;;5022949;28;20131;-80
2023/05/07 12:35:32;;;;;;;0.85;0.52;;;;;;;;;;5025106;28;21920;-81
2023/05/07 12:37:59;;;;;;;2.70;0.57;;;25.30;68.90;;;;;;5016807;28;20034;-81
2023/05/07 12:40:39;;;;;;;1.88;0.77;;;25.50;69.70;;;;;;5030774;28;20026;-80
2023/05/07 12:43:04;;;;;;;1.85;0.70;;;;;;;;;;5019833;28;20021;-80
2023/05/07 12:45:31;;;;;;;1.20;0.68;;;;;;;;;;5024845;28;20496;-81
2023/05/07 12:47:57;;;;;;;5.78;0.70;;;;;;;;;;5030371;28;20029;-81
2023/05/07 12:50:23;;;;;;;1.90;0.88;;;;;;;;;;5026891;28;20120;-79
2023/05/07 12:52:50;;;;;;;1.38;0.70;;;;;;;;;;5018919;28;20119;-82
2023/05/07 12:55:16;;;;;;;1.25;0.50;;;;;;;;;;5020102;28;20037;-82
2023/05/07 12:57:47;;;;;;;1.40;0.90;;;25.60;65.10;;;;;;5016592;28;20033;-81
2023/05/07 13:00:14;;;;;;;4.78;1.40;;;;;;;;;;5022640;28;20045;-82
2023/05/07 13:02:44;;;;;;;3.20;0.63;;;25.30;70.60;;;;;;5012144;28;20576;-79
2023/05/07 13:05:10;;;;;;;0.85;0.38;;;;;;;;;;5018212;28;20507;-81
2023/05/07 13:07:36;;;;;;;1.02;0.52;;;;;;;;;;5016550;28;20049;-79
2023/05/07 13:10:03;;;;;;;0.40;0.40;;;24.80;71.50;;;;;;4997054;28;20099;-78
2023/05/07 13:12:29;;;;;;;1.50;0.65;;;;;;;;;;4999951;28;21737;-79
2023/05/07 13:14:56;;;;;;;1.48;0.47;;;;;;;;;;4999829;28;20037;-78
2023/05/07 13:17:22;;;;;;;4.13;0.63;;;;;;;;;;5031985;28;20304;-78
2023/05/07 13:19:48;;;;;;;1.20;0.70;;;;;;;;;;5023335;28;20278;-78
2023/05/07 13:22:14;;;;;;;0.95;0.52;;;;;;;;;;5023563;28;20037;-78
2023/05/07 13:24:42;;;;;;;1.20;0.57;;;;;;;;;;5026844;28;20110;-77
2023/05/07 13:27:08;;;;;;;2.75;0.82;;;;;;;;;;5023801;28;20231;-78
2023/05/07 13:29:34;;;;;;;1.15;0.60;;;;;;;;;;5016994;28;20215;-78
2023/05/07 13:32:00;;;;;;;0.95;0.47;;;;;;;;;;5022543;28;20069;-79
2023/05/07 13:34:27;;;;;;;0.85;0.55;;;;;;;;;;5029618;28;20041;-79
2023/05/07 13:36:53;;;;;;;0.98;0.50;;;;;;;;;;5041818;28;20029;-81
2023/05/07 13:39:19;;;;;;;4.07;0.77;;;;;;;;;;5031486;28;20109;-80
2023/05/07 13:41:45;;;;;;;0.98;0.68;;;;;;;;;;5022150;28;20434;-80
2023/05/07 13:44:11;;;;;;;1.13;0.70;;;;;;;;;;5029978;28;20024;-81
2023/05/07 13:46:37;;;;;;;2.83;1.10;;;;;;;;;;5020376;28;20036;-79
2023/05/07 13:49:03;;;;;;;2.65;0.80;;;;;;;;;;5018664;28;20025;-81
2023/05/07 13:51:29;;;;;;;2.58;1.00;;;;;;;;;;5016326;28;20527;-80
2023/05/07 13:53:55;;;;;;;1.30;0.60;;;;;;;;;;5021625;28;20059;-80
2023/05/07 13:56:21;;;;;;;1.38;0.55;;;;;;;;;;5014980;28;20436;-80
2023/05/07 13:58:47;;;;;;;1.33;0.57;;;;;;;;;;5012750;28;20030;-80
2023/05/07 14:01:13;;;;;;;2.03;0.60;;;;;;;;;;5032190;28;20034;-80
2023/05/07 14:03:39;;;;;;;1.20;0.60;;;;;;;;;;5018062;28;20033;-80
2023/05/07 14:06:05;;;;;;;0.85;0.50;;;;;;;;;;5029825;28;20036;-80
2023/05/07 14:08:31;;;;;;;1.50;0.93;;;;;;;;;;5025307;28;20470;-81
2023/05/07 14:10:57;;;;;;;1.35;0.60;;;;;;;;;;5024395;28;20056;-80
2023/05/07 14:13:23;;;;;;;1.10;0.60;;;;;;;;;;5017952;28;20057;-80
2023/05/07 14:15:49;;;;;;;3.13;0.82;;;;;;;;;;5011067;28;20121;-81
2023/05/07 14:18:16;;;;;;;4.20;1.00;;;24.20;65.20;;;;;;5008630;28;20134;-81
2023/05/07 14:20:47;;;;;;;1.42;0.43;;;;;;;;;;5014388;28;20037;-80